Time;durP1;ratioP1;P1;durP2;ratioP2;P2;SDS_P1;SDS_P2;PMS_P1;PMS_P2;Temp;Humidity;BMP_temperature;BMP_pressure;BME280_temperature;BME280_humidity;BME280_pressure;Samples;Min_cycle;Max_cycle;Signal;HPM_P1;HPM_P2
2023/03/18 00:00:17;;;;;;;8.77;4.22;;;5.80;53.40;;;;;;5052177;28;20362;-68
2023/03/18 00:02:44;;;;;;;9.98;4.40;;;5.70;53.50;;;;;;5051745;28;20057;-69
2023/03/18 00:05:11;;;;;;;8.07;3.70;;;5.70;53.70;;;;;;5052217;28;20025;-68
2023/03/18 00:07:37;;;;;;;10.75;4.10;;;5.70;53.70;;;;;;5052592;28;20033;-68
2023/03/18 00:10:05;;;;;;;8.98;4.43;;;5.70;53.80;;;;;;5055813;28;20465;-68
2023/03/18 00:12:32;;;;;;;13.23;4.38;;;5.60;53.90;;;;;;5055576;28;20390;-69
2023/03/18 00:14:58;;;;;;;8.23;4.13;;;5.60;54.00;;;;;;5055075;28;20025;-68
2023/03/18 00:17:24;;;;;;;11.88;4.10;;;5.60;54.10;;;;;;5055346;28;20029;-69
2023/03/18 00:19:50;;;;;;;9.88;4.07;;;5.60;54.10;;;;;;5055201;28;20031;-69
2023/03/18 00:22:16;;;;;;;9.73;4.38;;;5.60;54.00;;;;;;5055721;28;20032;-69
2023/03/18 00:24:42;;;;;;;7.40;4.03;;;5.50;54.20;;;;;;5055319;28;20120;-69
2023/03/18 00:27:08;;;;;;;12.05;4.45;;;5.60;54.40;;;;;;5055574;28;20133;-69
2023/03/18 00:29:34;;;;;;;11.13;4.30;;;5.50;54.50;;;;;;5055296;28;20032;-70
2023/03/18 00:32:00;;;;;;;8.82;4.65;;;5.50;54.50;;;;;;5055793;28;20064;-69
2023/03/18 00:34:26;;;;;;;9.05;4.55;;;5.50;54.70;;;;;;5054137;28;20064;-69
2023/03/18 00:36:55;;;;;;;8.85;4.53;;;5.40;54.90;;;;;;5054815;28;20036;-69
2023/03/18 00:39:25;;;;;;;9.48;4.82;;;5.40;55.50;;;;;;5055191;28;20461;-68
2023/03/18 00:41:53;;;;;;;10.88;4.47;;;5.40;55.20;;;;;;5054584;28;20460;-69
2023/03/18 00:44:19;;;;;;;9.73;4.53;;;5.40;55.40;;;;;;5053284;28;20080;-69
2023/03/18 00:46:45;;;;;;;11.55;4.15;;;5.30;55.40;;;;;;5054731;28;20398;-69
2023/03/18 00:49:11;;;;;;;11.02;4.53;;;5.30;55.60;;;;;;5055852;28;20029;-69
2023/03/18 00:51:38;;;;;;;6.13;3.95;;;5.30;55.70;;;;;;5054911;28;20025;-70
2023/03/18 00:54:06;;;;;;;12.15;4.70;;;5.30;55.70;;;;;;5054594;28;20116;-68
2023/03/18 00:56:33;;;;;;;8.15;4.03;;;5.30;55.70;;;;;;5054519;28;20032;-68
2023/03/18 00:58:59;;;;;;;6.65;4.05;;;5.30;55.80;;;;;;5053915;28;20033;-69
2023/03/18 01:01:26;;;;;;;9.90;3.95;;;5.30;55.70;;;;;;5054495;28;20461;-68
2023/03/18 01:03:53;;;;;;;10.07;4.20;;;5.30;55.70;;;;;;5054051;28;20086;-69
2023/03/18 01:06:22;;;;;;;7.97;4.40;;;5.30;55.80;;;;;;5054691;28;20106;-68
2023/03/18 01:08:49;;;;;;;11.45;4.10;;;5.30;55.80;;;;;;5052763;28;20029;-69
2023/03/18 01:11:15;;;;;;;9.00;4.40;;;5.30;55.80;;;;;;5054499;28;20049;-69
2023/03/18 01:13:41;;;;;;;10.52;4.07;;;5.20;55.70;;;;;;5053983;28;20071;-69
2023/03/18 01:16:08;;;;;;;7.45;3.58;;;5.20;55.80;;;;;;5054250;28;20183;-68
2023/03/18 01:18:35;;;;;;;7.30;4.07;;;5.20;55.80;;;;;;5054200;28;20412;-68
2023/03/18 01:21:02;;;;;;;6.65;4.15;;;5.20;55.90;;;;;;5054104;28;20115;-69
2023/03/18 01:23:29;;;;;;;8.18;3.88;;;5.20;55.80;;;;;;5053885;28;20436;-69
2023/03/18 01:25:55;;;;;;;6.20;3.67;;;5.20;55.80;;;;;;5053574;28;20128;-69
2023/03/18 01:28:22;;;;;;;10.05;4.60;;;5.20;55.90;;;;;;5054036;28;20029;-68
2023/03/18 01:30:47;;;;;;;7.80;3.63;;;5.20;55.90;;;;;;5052975;28;20096;-68
2023/03/18 01:33:14;;;;;;;8.13;4.20;;;5.20;55.80;;;;;;5053982;28;20108;-69
2023/03/18 01:35:40;;;;;;;8.50;4.03;;;5.20;55.90;;;;;;5053504;28;20505;-69
2023/03/18 01:38:06;;;;;;;7.60;4.10;;;5.20;55.80;;;;;;5053828;28;20116;-69
2023/03/18 01:40:34;;;;;;;8.05;3.83;;;5.20;56.30;;;;;;5053868;28;20029;-68
2023/03/18 01:43:23;;;;;;;8.00;3.72;;;5.20;55.60;;;;;;5053125;28;20091;-68
2023/03/18 01:45:54;;;;;;;7.90;4.18;;;5.20;55.50;;;;;;5053225;28;20086;-68
2023/03/18 01:48:22;;;;;;;8.20;4.40;;;5.20;55.50;;;;;;5053768;28;20029;-68
2023/03/18 01:50:53;;;;;;;9.25;4.05;;;5.20;55.40;;;;;;5053140;28;20052;-68
2023/03/18 01:53:19;;;;;;;;;;;5.20;55.40;;;;;;5054147;28;20416;-68
2023/03/18 01:55:47;;;;;;;9.23;4.53;;;5.20;55.40;;;;;;5052799;28;20344;-68
2023/03/18 01:58:19;;;;;;;13.30;4.93;;;5.20;55.50;;;;;;5053273;28;20138;-68
2023/03/18 02:00:52;;;;;;;7.72;4.45;;;5.10;55.50;;;;;;5052998;28;20027;-69
2023/03/18 02:03:19;;;;;;;10.88;4.75;;;5.10;55.60;;;;;;5053497;28;20021;-68
2023/03/18 02:05:44;;;;;;;6.97;4.88;;;5.10;55.70;;;;;;5052995;28;20029;-68
2023/03/18 02:08:10;;;;;;;8.25;4.32;;;5.10;55.80;;;;;;5053151;28;20036;-68
2023/03/18 02:10:37;;;;;;;9.02;4.32;;;5.10;55.80;;;;;;5052882;28;20025;-68
2023/03/18 02:13:08;;;;;;;8.95;4.20;;;5.10;56.00;;;;;;5053023;28;20499;-68
2023/03/18 02:15:41;;;;;;;9.55;4.38;;;5.10;56.00;;;;;;5053182;28;20029;-68
2023/03/18 02:18:22;;;;;;;10.52;4.60;;;5.10;55.90;;;;;;5053188;28;20036;-68
2023/03/18 02:21:12;;;;;;;8.32;4.65;;;5.10;55.90;;;;;;5052670;28;20029;-68
2023/03/18 02:23:50;;;;;;;7.40;3.88;;;5.10;56.10;;;;;;5053050;28;20488;-68
2023/03/18 02:26:48;;;;;;;8.57;3.97;;;5.10;56.20;;;;;;5052928;28;20488;-68
2023/03/18 02:29:17;;;;;;;9.20;3.95;;;5.10;56.20;;;;;;5052926;28;20032;-69
2023/03/18 02:31:44;;;;;;;13.90;4.68;;;5.10;56.20;;;;;;5052284;28;20025;-69
2023/03/18 02:34:11;;;;;;;7.88;4.60;;;5.10;56.30;;;;;;5052245;28;20108;-68
2023/03/18 02:36:37;;;;;;;9.57;4.45;;;5.10;56.40;;;;;;5052962;28;20073;-68
2023/03/18 02:39:03;;;;;;;7.05;4.50;;;5.10;56.40;;;;;;5052454;28;20024;-69
2023/03/18 02:41:33;;;;;;;10.38;4.75;;;5.00;56.50;;;;;;5052762;28;20029;-68
2023/03/18 02:43:59;;;;;;;16.08;4.15;;;5.10;56.40;;;;;;5052195;28;20465;-69
2023/03/18 02:46:52;;;;;;;10.25;4.28;;;5.10;56.60;;;;;;5053058;28;20051;-68
2023/03/18 02:49:20;;;;;;;8.45;4.00;;;5.00;56.70;;;;;;5052747;28;20029;-67
2023/03/18 02:51:46;;;;;;;8.85;4.07;;;5.00;57.00;;;;;;5055521;28;20039;-69
2023/03/18 02:54:15;;;;;;;10.27;4.63;;;5.00;57.20;;;;;;5057124;28;20067;-69
2023/03/18 02:56:42;;;;;;;6.95;3.97;;;4.90;57.80;;;;;;5053380;28;20032;-69
2023/03/18 02:59:10;;;;;;;9.10;4.47;;;4.90;57.40;;;;;;5056586;28;20040;-68
2023/03/18 03:01:36;;;;;;;8.57;5.07;;;4.90;57.50;;;;;;5053729;28;20031;-68
2023/03/18 03:04:04;;;;;;;14.30;4.97;;;4.90;57.70;;;;;;5053394;28;20043;-69
2023/03/18 03:06:29;;;;;;;9.18;4.63;;;4.80;57.80;;;;;;5053655;28;20025;-69
2023/03/18 03:08:56;;;;;;;7.82;4.40;;;4.80;58.10;;;;;;5051956;28;20035;-68
2023/03/18 03:11:23;;;;;;;10.30;4.88;;;4.80;58.20;;;;;;5052563;28;20036;-69
2023/03/18 03:13:49;;;;;;;10.35;4.85;;;4.80;58.30;;;;;;5052114;28;20103;-69
2023/03/18 03:16:16;;;;;;;9.00;4.20;;;4.80;58.40;;;;;;5052813;28;20446;-68
2023/03/18 03:18:43;;;;;;;15.80;4.70;;;4.70;58.50;;;;;;5052505;28;20112;-68
2023/03/18 03:21:09;;;;;;;7.35;4.25;;;4.70;58.50;;;;;;5052133;28;20029;-69
2023/03/18 03:23:36;;;;;;;9.13;4.43;;;4.70;58.50;;;;;;5052390;28;20086;-68
2023/03/18 03:26:03;;;;;;;8.02;4.50;;;4.60;58.90;;;;;;5051906;28;20021;-69
2023/03/18 03:28:29;;;;;;;9.73;5.10;;;4.60;59.10;;;;;;5052236;28;20032;-69
2023/03/18 03:30:55;;;;;;;7.43;4.40;;;4.60;59.10;;;;;;5051959;28;20037;-69
2023/03/18 03:33:22;;;;;;;7.43;4.20;;;4.60;59.10;;;;;;5052222;28;20350;-69
2023/03/18 03:35:48;;;;;;;8.60;5.20;;;4.60;59.10;;;;;;5052101;28;20052;-69
2023/03/18 03:38:13;;;;;;;7.93;4.20;;;4.60;59.20;;;;;;5051895;28;20453;-69
2023/03/18 03:40:39;;;;;;;6.50;4.10;;;4.60;59.20;;;;;;5051055;28;20112;-68
2023/03/18 03:43:05;;;;;;;9.55;5.15;;;4.60;59.20;;;;;;5053643;28;20557;-68
2023/03/18 03:45:32;;;;;;;7.90;4.65;;;4.50;59.40;;;;;;5054596;28;20049;-68
2023/03/18 03:47:58;;;;;;;9.77;4.50;;;4.50;59.50;;;;;;5055499;28;20037;-67
2023/03/18 03:50:25;;;;;;;8.77;4.72;;;4.50;59.40;;;;;;5055979;28;20021;-69
2023/03/18 03:52:51;;;;;;;9.75;4.68;;;4.50;59.50;;;;;;5055646;28;20036;-69
2023/03/18 03:55:20;;;;;;;9.07;5.00;;;4.50;59.70;;;;;;5055625;28;20444;-69
2023/03/18 03:57:45;;;;;;;11.73;5.05;;;4.50;59.60;;;;;;5055752;28;20036;-67
2023/03/18 04:00:16;;;;;;;6.90;4.57;;;4.50;59.60;;;;;;5055395;28;20099;-68
2023/03/18 04:02:43;;;;;;;9.25;4.53;;;4.50;59.50;;;;;;5055206;28;20116;-67
2023/03/18 04:05:10;;;;;;;9.82;4.90;;;4.50;59.60;;;;;;5054953;28;20484;-68
2023/03/18 04:07:37;;;;;;;10.38;4.88;;;4.60;59.50;;;;;;5055550;28;20078;-68
2023/03/18 04:10:03;;;;;;;11.00;4.93;;;4.50;59.50;;;;;;5055061;28;20021;-69
2023/03/18 04:12:29;;;;;;;12.63;5.30;;;4.50;59.80;;;;;;5055564;28;20025;-69
2023/03/18 04:14:55;;;;;;;9.27;5.00;;;4.50;59.80;;;;;;5055136;28;20091;-69
2023/03/18 04:17:21;;;;;;;11.77;5.32;;;4.40;60.00;;;;;;5054306;28;20079;-67
2023/03/18 04:19:47;;;;;;;9.20;4.70;;;4.50;59.90;;;;;;5055283;28;20033;-68
2023/03/18 04:22:13;;;;;;;9.68;5.18;;;4.50;59.90;;;;;;5054764;28;20031;-68
2023/03/18 04:24:38;;;;;;;7.82;4.57;;;4.50;59.80;;;;;;5055292;28;20036;-68
2023/03/18 04:27:04;;;;;;;10.90;5.07;;;4.40;60.20;;;;;;5054709;28;20048;-67
2023/03/18 04:29:31;;;;;;;10.20;5.40;;;4.40;60.20;;;;;;5055127;28;20037;-68
2023/03/18 04:31:57;;;;;;;9.15;4.90;;;4.40;60.50;;;;;;5054811;28;20021;-69
2023/03/18 04:34:23;;;;;;;8.07;5.15;;;4.40;60.40;;;;;;5055113;28;20059;-69
2023/03/18 04:36:49;;;;;;;10.43;5.68;;;4.40;60.50;;;;;;5054843;28;20060;-69
2023/03/18 04:39:15;;;;;;;9.85;4.90;;;4.30;60.60;;;;;;5054155;28;20393;-68
2023/03/18 04:41:40;;;;;;;10.50;5.45;;;4.30;60.80;;;;;;5055069;28;20082;-68
2023/03/18 04:44:06;;;;;;;9.65;5.22;;;4.20;61.60;;;;;;5054752;28;20496;-68
2023/03/18 04:46:32;;;;;;;10.52;5.18;;;4.20;61.40;;;;;;5055013;28;20021;-68
2023/03/18 04:48:58;;;;;;;12.95;6.10;;;4.10;61.40;;;;;;5054313;28;20090;-67
2023/03/18 04:51:24;;;;;;;9.10;5.07;;;4.20;61.40;;;;;;5054877;28;20025;-69
2023/03/18 04:53:50;;;;;;;14.02;5.25;;;4.20;61.50;;;;;;5054070;28;20389;-68
2023/03/18 04:56:17;;;;;;;10.35;4.95;;;4.20;61.50;;;;;;5054391;28;20021;-67
2023/03/18 04:58:43;;;;;;;11.60;5.18;;;4.20;61.50;;;;;;5054828;28;20032;-67
2023/03/18 05:01:09;;;;;;;9.35;4.88;;;4.20;61.30;;;;;;5053970;28;20389;-69
2023/03/18 05:03:35;;;;;;;10.45;5.90;;;4.30;61.20;;;;;;5054672;28;20476;-68
2023/03/18 05:06:01;;;;;;;10.18;5.72;;;4.20;61.40;;;;;;5053785;28;20461;-69
2023/03/18 05:08:27;;;;;;;9.95;5.38;;;4.20;61.40;;;;;;5054507;28;20035;-68
2023/03/18 05:10:53;;;;;;;11.10;5.57;;;4.10;61.60;;;;;;5054310;28;20100;-68
2023/03/18 05:13:18;;;;;;;10.38;5.50;;;4.10;61.60;;;;;;5053575;28;20083;-67
2023/03/18 05:15:44;;;;;;;12.38;5.82;;;4.10;61.70;;;;;;5054441;28;20068;-68
2023/03/18 05:18:11;;;;;;;9.75;5.45;;;4.20;61.40;;;;;;5053813;28;20025;-69
2023/03/18 05:20:38;;;;;;;10.88;5.80;;;4.20;61.40;;;;;;5054021;28;20465;-69
2023/03/18 05:23:04;;;;;;;10.02;5.60;;;4.20;61.50;;;;;;5053864;28;20036;-69
2023/03/18 05:25:30;;;;;;;14.90;5.57;;;4.20;61.40;;;;;;5052621;28;20358;-69
2023/03/18 05:27:56;;;;;;;10.30;5.45;;;4.10;61.60;;;;;;5054070;28;20112;-68
2023/03/18 05:30:22;;;;;;;11.75;5.78;;;4.20;61.70;;;;;;5053763;28;20488;-69
2023/03/18 05:32:48;;;;;;;11.13;5.47;;;4.20;61.60;;;;;;5054087;28;20032;-68
2023/03/18 05:35:14;;;;;;;10.30;5.15;;;4.20;61.60;;;;;;5051871;28;20037;-68
2023/03/18 05:37:40;;;;;;;8.13;5.57;;;4.30;61.60;;;;;;5053924;28;20048;-68
2023/03/18 05:40:10;;;;;;;14.65;6.10;;;4.20;61.60;;;;;;5053536;28;20033;-69
2023/03/18 05:42:37;;;;;;;10.32;5.97;;;4.30;61.60;;;;;;5053527;28;20052;-69
2023/03/18 05:45:04;;;;;;;10.95;5.68;;;4.30;61.40;;;;;;5053047;28;20044;-68
2023/03/18 05:47:30;;;;;;;11.70;5.53;;;4.40;61.50;;;;;;5053745;28;20032;-69
2023/03/18 05:49:56;;;;;;;11.98;5.97;;;4.30;61.30;;;;;;5053479;28;20134;-68
2023/03/18 05:52:22;;;;;;;11.88;5.82;;;4.50;61.10;;;;;;5053018;28;20108;-69
2023/03/18 05:54:49;;;;;;;9.20;5.75;;;4.50;61.50;;;;;;5053880;28;20033;-69
2023/03/18 05:57:14;;;;;;;9.18;5.30;;;4.60;60.90;;;;;;5053098;28;20032;-68
2023/03/18 05:59:40;;;;;;;13.32;5.90;;;4.60;60.60;;;;;;5053707;28;20032;-69
2023/03/18 06:02:06;;;;;;;11.93;5.40;;;4.70;60.50;;;;;;5052693;28;20112;-68
2023/03/18 06:04:31;;;;;;;8.80;5.20;;;4.80;60.30;;;;;;5052557;28;20079;-69
2023/03/18 06:06:57;;;;;;;9.20;4.68;;;4.90;60.00;;;;;;5053160;28;20029;-68
2023/03/18 06:09:24;;;;;;;7.45;5.25;;;4.90;59.80;;;;;;5052927;28;20079;-68
2023/03/18 06:11:50;;;;;;;13.00;5.57;;;5.10;59.40;;;;;;5053166;28;20055;-68
2023/03/18 06:14:17;;;;;;;9.38;5.72;;;5.20;59.10;;;;;;5052621;28;20450;-68
2023/03/18 06:16:44;;;;;;;14.38;5.85;;;5.30;58.60;;;;;;5053416;28;20021;-68
2023/03/18 06:19:10;;;;;;;13.02;5.70;;;5.40;58.30;;;;;;5052857;28;20025;-69
2023/03/18 06:21:37;;;;;;;9.63;5.43;;;5.50;58.20;;;;;;5053185;28;20029;-68
2023/03/18 06:24:06;;;;;;;11.23;5.97;;;5.60;57.80;;;;;;5052684;28;20029;-69
2023/03/18 06:26:31;;;;;;;10.75;5.90;;;5.60;57.50;;;;;;5052915;28;20021;-67
2023/03/18 06:28:57;;;;;;;8.63;5.05;;;5.80;57.40;;;;;;5053146;28;20048;-69
2023/03/18 06:31:23;;;;;;;10.23;5.35;;;5.80;56.90;;;;;;5052373;28;20059;-69
2023/03/18 06:33:49;;;;;;;9.05;5.20;;;5.90;57.10;;;;;;5052851;28;20033;-69
2023/03/18 06:36:18;;;;;;;8.43;5.38;;;5.90;56.30;;;;;;5052476;28;20025;-69
2023/03/18 06:38:44;;;;;;;9.27;5.43;;;6.00;56.10;;;;;;5052697;28;20056;-68
2023/03/18 06:41:11;;;;;;;10.80;5.68;;;6.10;56.00;;;;;;5052011;28;20033;-69
2023/03/18 06:43:37;;;;;;;7.78;5.10;;;6.10;55.70;;;;;;5052106;28;20045;-68
2023/03/18 06:46:03;;;;;;;9.43;5.10;;;6.10;55.50;;;;;;5052484;28;20025;-68
2023/03/18 06:48:28;;;;;;;8.63;5.03;;;6.20;55.10;;;;;;5052736;28;20021;-67
2023/03/18 06:50:54;;;;;;;10.40;5.10;;;6.10;55.00;;;;;;5052441;28;20538;-68
2023/03/18 06:53:21;;;;;;;13.55;6.72;;;6.20;55.10;;;;;;5052205;28;20029;-67
2023/03/18 06:55:47;;;;;;;8.77;5.60;;;6.10;55.20;;;;;;5052640;28;20029;-67
2023/03/18 06:58:13;;;;;;;9.00;4.90;;;6.10;55.30;;;;;;5052110;28;20025;-69
2023/03/18 07:00:41;;;;;;;9.02;5.38;;;6.20;54.90;;;;;;5052989;28;20040;-68
2023/03/18 07:03:06;;;;;;;8.98;5.22;;;6.20;54.70;;;;;;5052044;28;20029;-69
2023/03/18 07:05:32;;;;;;;17.95;6.35;;;6.20;55.00;;;;;;5052530;28;20036;-67
2023/03/18 07:07:58;;;;;;;9.02;5.30;;;6.30;55.00;;;;;;5051251;28;20032;-68
2023/03/18 07:10:28;;;;;;;10.02;5.68;;;6.40;54.60;;;;;;5051994;28;20036;-68
2023/03/18 07:12:54;;;;;;;12.98;5.88;;;6.40;54.80;;;;;;5052376;28;20461;-68
2023/03/18 07:15:21;;;;;;;12.82;6.15;;;6.50;54.50;;;;;;5051672;28;20021;-68
2023/03/18 07:17:49;;;;;;;12.45;5.68;;;6.60;54.40;;;;;;5055752;28;20107;-68
2023/03/18 07:20:15;;;;;;;11.07;5.75;;;6.70;54.10;;;;;;5056080;28;20068;-68
2023/03/18 07:22:43;;;;;;;12.70;6.30;;;6.90;53.80;;;;;;5056545;28;20108;-67
2023/03/18 07:25:09;;;;;;;10.90;5.75;;;7.10;53.10;;;;;;5055924;28;20021;-69
2023/03/18 07:27:35;;;;;;;11.15;5.75;;;7.20;52.50;;;;;;5056225;28;20423;-68
2023/03/18 07:30:01;;;;;;;12.85;6.22;;;7.50;51.70;;;;;;5056282;28;20025;-68
2023/03/18 07:32:28;;;;;;;9.18;5.80;;;7.90;50.70;;;;;;5055735;28;20021;-69
2023/03/18 07:34:55;;;;;;;10.07;6.03;;;8.30;50.50;;;;;;5056267;28;20031;-68
2023/03/18 07:37:22;;;;;;;10.85;5.90;;;8.60;49.50;;;;;;5055795;28;20028;-69
2023/03/18 07:39:47;;;;;;;9.63;6.00;;;8.90;48.20;;;;;;5056073;28;20059;-68
2023/03/18 07:42:13;;;;;;;11.40;5.50;;;9.10;47.60;;;;;;5054781;28;20085;-68
2023/03/18 07:44:39;;;;;;;9.65;5.40;;;9.30;46.90;;;;;;5055784;28;20048;-68
2023/03/18 07:47:04;;;;;;;14.35;5.97;;;9.70;46.50;;;;;;5056298;28;20035;-68
2023/03/18 07:49:33;;;;;;;10.80;5.80;;;10.20;45.40;;;;;;5053960;28;20026;-68
2023/03/18 07:51:58;;;;;;;10.70;5.93;;;10.80;44.20;;;;;;5055810;28;20036;-67
2023/03/18 07:54:24;;;;;;;9.88;6.25;;;11.40;42.10;;;;;;5055323;28;20029;-68
2023/03/18 07:56:50;;;;;;;6.82;5.05;;;11.90;41.80;;;;;;5055684;28;20135;-68
2023/03/18 07:59:17;;;;;;;9.50;5.60;;;12.40;40.50;;;;;;5055376;28;20029;-68
2023/03/18 08:01:43;;;;;;;10.07;5.55;;;12.40;40.50;;;;;;5055583;28;20029;-67
2023/03/18 08:04:09;;;;;;;9.18;5.18;;;12.50;40.30;;;;;;5054834;28;20107;-69
2023/03/18 08:06:35;;;;;;;8.63;5.30;;;12.40;39.70;;;;;;5055454;28;20025;-68
2023/03/18 08:09:01;;;;;;;9.88;5.05;;;12.30;40.20;;;;;;5055441;28;20021;-68
2023/03/18 08:11:26;;;;;;;11.57;5.82;;;12.80;40.10;;;;;;5053588;28;20087;-68
2023/03/18 08:13:52;;;;;;;10.75;5.82;;;12.80;39.50;;;;;;5055494;28;20025;-68
2023/03/18 08:16:18;;;;;;;7.95;5.60;;;13.30;40.10;;;;;;5054482;28;20025;-68
2023/03/18 08:18:44;;;;;;;10.15;5.63;;;13.40;38.60;;;;;;5055259;28;20025;-68
2023/03/18 08:21:10;;;;;;;10.15;5.78;;;13.80;38.30;;;;;;5054700;28;20035;-69
2023/03/18 08:23:36;;;;;;;8.65;5.53;;;14.00;37.40;;;;;;5053485;28;20112;-68
2023/03/18 08:26:02;;;;;;;8.88;4.93;;;14.10;37.30;;;;;;5055334;28;20385;-68
2023/03/18 08:28:27;;;;;;;12.02;5.93;;;14.30;37.20;;;;;;5053502;28;20025;-68
2023/03/18 08:30:54;;;;;;;12.45;5.43;;;14.00;36.90;;;;;;5055011;28;20095;-68
2023/03/18 08:33:22;;;;;;;9.85;6.45;;;13.10;38.40;;;;;;5054455;28;20029;-68
2023/03/18 08:35:47;;;;;;;10.30;6.05;;;12.70;39.00;;;;;;5054870;28;20037;-68
2023/03/18 08:38:13;;;;;;;8.38;5.38;;;12.50;39.80;;;;;;5054566;28;20036;-68
2023/03/18 08:40:41;;;;;;;10.68;5.88;;;12.30;40.10;;;;;;5054559;28;20484;-68
2023/03/18 08:43:07;;;;;;;10.40;5.82;;;12.20;39.90;;;;;;5054652;28;20131;-68
2023/03/18 08:45:32;;;;;;;8.57;5.30;;;12.00;40.00;;;;;;5054143;28;20128;-68
2023/03/18 08:47:59;;;;;;;11.75;6.40;;;11.90;40.30;;;;;;5054615;28;20021;-68
2023/03/18 08:50:27;;;;;;;10.73;5.93;;;11.60;41.20;;;;;;5054032;28;20029;-68
2023/03/18 08:52:55;;;;;;;14.40;6.20;;;11.50;41.50;;;;;;5054661;28;20033;-68
2023/03/18 08:55:21;;;;;;;9.05;5.53;;;11.40;42.20;;;;;;5053960;28;20037;-68
2023/03/18 08:57:48;;;;;;;12.10;6.05;;;11.10;42.70;;;;;;5055216;28;20063;-68
2023/03/18 09:00:15;;;;;;;19.00;5.78;;;11.10;43.20;;;;;;5054116;28;20064;-69
2023/03/18 09:02:40;;;;;;;9.80;5.95;;;11.10;42.60;;;;;;5054218;28;20131;-68
2023/03/18 09:05:06;;;;;;;12.65;5.97;;;11.10;42.80;;;;;;5054189;28;20488;-68
2023/03/18 09:07:32;;;;;;;9.45;5.55;;;11.20;42.30;;;;;;5052805;28;20389;-68
2023/03/18 09:09:58;;;;;;;11.10;6.18;;;11.20;42.40;;;;;;5054479;28;20335;-68
2023/03/18 09:12:23;;;;;;;11.18;5.93;;;11.10;42.50;;;;;;5053482;28;20025;-68
2023/03/18 09:14:49;;;;;;;10.73;5.90;;;11.20;42.50;;;;;;5054561;28;20063;-68
2023/03/18 09:17:15;;;;;;;9.13;5.93;;;11.20;43.00;;;;;;5050864;28;20481;-68
2023/03/18 09:19:41;;;;;;;13.55;6.40;;;11.10;42.80;;;;;;5053686;28;20029;-68
2023/03/18 09:22:08;;;;;;;10.73;6.00;;;11.10;42.70;;;;;;5054337;28;20028;-68
2023/03/18 09:24:33;;;;;;;11.70;6.25;;;11.10;42.90;;;;;;5053064;28;20478;-68
2023/03/18 09:26:59;;;;;;;8.43;5.88;;;11.30;42.90;;;;;;5053625;28;20075;-68
2023/03/18 09:29:26;;;;;;;11.02;6.72;;;11.20;42.80;;;;;;5053333;28;20036;-68
2023/03/18 09:31:52;;;;;;;10.52;6.30;;;11.20;42.50;;;;;;5053806;28;20060;-67
2023/03/18 09:34:18;;;;;;;9.35;5.63;;;11.30;42.30;;;;;;5052609;28;20047;-68
2023/03/18 09:36:49;;;;;;;11.48;7.25;;;11.40;42.40;;;;;;5053740;28;20464;-68
2023/03/18 09:39:19;;;;;;;17.48;7.05;;;11.50;42.40;;;;;;5053558;28;20029;-68
2023/03/18 09:41:52;;;;;;;12.02;6.25;;;11.60;42.10;;;;;;5053435;28;20473;-68
2023/03/18 09:44:29;;;;;;;9.85;5.90;;;11.60;41.90;;;;;;5052723;28;20447;-68
2023/03/18 09:47:33;;;;;;;9.77;5.53;;;11.80;41.80;;;;;;5053446;28;20071;-68
2023/03/18 09:50:14;;;;;;;11.23;6.20;;;11.90;41.50;;;;;;5053720;28;20112;-68
2023/03/18 09:52:52;;;;;;;8.57;5.75;;;12.00;41.50;;;;;;5053466;28;20064;-68
2023/03/18 09:55:27;;;;;;;10.20;6.32;;;12.00;41.30;;;;;;5053174;28;20029;-68
2023/03/18 09:57:57;;;;;;;16.35;6.63;;;12.00;41.10;;;;;;5053261;28;20527;-68
2023/03/18 10:00:28;;;;;;;11.70;6.00;;;12.20;41.10;;;;;;5052942;28;20053;-68
2023/03/18 10:03:00;;;;;;;10.30;6.38;;;12.30;40.80;;;;;;5053166;28;20537;-68
2023/03/18 10:05:33;;;;;;;8.70;6.63;;;12.20;40.80;;;;;;5052701;28;20041;-68
2023/03/18 10:08:10;;;;;;;11.32;6.78;;;12.30;40.70;;;;;;5053198;28;20461;-67
2023/03/18 10:10:39;;;;;;;8.60;5.32;;;12.20;40.60;;;;;;5051493;28;20416;-68
2023/03/18 10:13:32;;;;;;;10.45;5.95;;;12.30;40.90;;;;;;5052831;28;20113;-67
2023/03/18 10:16:02;;;;;;;12.35;6.93;;;12.40;40.40;;;;;;5053271;28;20029;-67
2023/03/18 10:18:38;;;;;;;10.35;6.32;;;12.40;40.70;;;;;;5052894;28;20021;-68
2023/03/18 10:21:18;;;;;;;12.10;6.47;;;12.50;40.70;;;;;;5053043;28;20145;-67
2023/03/18 10:24:15;;;;;;;9.80;6.23;;;12.70;40.70;;;;;;5052876;28;20525;-68
2023/03/18 10:26:49;;;;;;;12.23;6.28;;;12.80;40.50;;;;;;5052575;28;20354;-67
2023/03/18 10:29:28;;;;;;;15.38;6.45;;;12.90;40.10;;;;;;5052871;28;20029;-68
2023/03/18 10:32:06;;;;;;;10.90;6.75;;;13.00;40.70;;;;;;5051740;28;20060;-68
2023/03/18 10:35:11;;;;;;;12.77;6.43;;;13.10;39.80;;;;;;5052242;28;20064;-68
2023/03/18 10:38:01;;;;;;;11.10;7.32;;;13.20;39.90;;;;;;5052358;28;20079;-68
2023/03/18 10:40:31;;;;;;;12.73;6.57;;;13.20;40.10;;;;;;5052456;28;20032;-67
2023/03/18 10:42:57;;;;;;;10.70;6.45;;;13.40;40.10;;;;;;5052382;28;20057;-67
2023/03/18 10:45:32;;;;;;;13.25;6.57;;;13.40;39.50;;;;;;5050733;28;20064;-67
2023/03/18 10:48:12;;;;;;;10.48;6.20;;;13.50;39.40;;;;;;5052876;28;20029;-68
2023/03/18 10:50:58;;;;;;;12.60;6.40;;;13.50;39.40;;;;;;5051997;28;20079;-68
2023/03/18 10:53:32;;;;;;;10.63;6.82;;;13.60;39.50;;;;;;5047277;28;20037;-68
2023/03/18 10:56:09;;;;;;;13.13;6.75;;;13.70;39.00;;;;;;5052258;28;20429;-68
2023/03/18 10:58:37;;;;;;;10.07;5.93;;;13.60;39.10;;;;;;5052094;28;20032;-68
2023/03/18 11:01:08;;;;;;;8.63;5.55;;;13.70;38.80;;;;;;5052740;28;20028;-68
2023/03/18 11:03:57;;;;;;;11.13;6.43;;;13.80;38.80;;;;;;5051774;28;20524;-68
2023/03/18 11:06:49;;;;;;;9.80;6.32;;;13.90;39.30;;;;;;5052013;28;20428;-69
2023/03/18 11:09:23;;;;;;;11.38;7.22;;;14.00;38.90;;;;;;5052022;28;20098;-68
2023/03/18 11:11:54;;;;;;;11.05;6.57;;;14.00;38.80;;;;;;5052404;28;20127;-69
2023/03/18 11:14:25;;;;;;;10.75;6.65;;;14.00;38.30;;;;;;5052553;28;20029;-67
2023/03/18 11:16:58;;;;;;;14.15;7.25;;;13.90;38.60;;;;;;5052398;28;20033;-68
2023/03/18 11:19:47;;;;;;;11.45;6.85;;;14.00;39.10;;;;;;5051975;28;20071;-69
2023/03/18 11:22:15;;;;;;;12.90;6.93;;;14.10;38.90;;;;;;5052255;28;20029;-67
2023/03/18 11:24:41;;;;;;;11.40;6.82;;;14.20;38.40;;;;;;5051775;28;20068;-68
2023/03/18 11:27:13;;;;;;;9.50;6.65;;;14.20;38.10;;;;;;5051829;28;20460;-67
2023/03/18 11:29:45;;;;;;;11.40;6.55;;;14.20;38.40;;;;;;5051748;28;20147;-68
2023/03/18 11:32:32;;;;;;;12.13;6.85;;;14.20;38.50;;;;;;5050888;28;20112;-68
2023/03/18 11:35:01;;;;;;;9.02;6.32;;;14.20;38.40;;;;;;5052296;28;20032;-67
2023/03/18 11:37:39;;;;;;;9.82;6.10;;;14.30;38.80;;;;;;5051687;28;20044;-68
2023/03/18 11:40:13;;;;;;;11.05;6.40;;;14.40;38.90;;;;;;5052450;28;20036;-67
2023/03/18 11:42:43;;;;;;;11.93;6.82;;;14.30;38.50;;;;;;5051518;28;20045;-68
2023/03/18 11:45:31;;;;;;;12.05;6.55;;;14.40;38.80;;;;;;5052212;28;20355;-68
2023/03/18 11:47:57;;;;;;;11.75;6.82;;;14.50;38.70;;;;;;5052291;28;20485;-68
2023/03/18 11:50:28;;;;;;;12.75;6.72;;;14.60;38.50;;;;;;5050799;28;20420;-68
2023/03/18 11:53:04;;;;;;;13.07;6.47;;;14.50;38.70;;;;;;5052163;28;20108;-68
2023/03/18 11:56:00;;;;;;;11.18;6.75;;;14.60;38.90;;;;;;5051419;28;20116;-68
2023/03/18 11:58:39;;;;;;;14.23;7.38;;;14.60;38.80;;;;;;5049481;28;20055;-68
2023/03/18 12:01:22;;;;;;;11.30;6.95;;;14.60;38.80;;;;;;5051828;28;20017;-68
2023/03/18 12:04:15;;;;;;;13.85;7.05;;;14.70;38.80;;;;;;5053051;28;20028;-69
2023/03/18 12:07:04;;;;;;;15.60;6.88;;;14.70;38.70;;;;;;5055228;28;20024;-68
2023/03/18 12:09:59;;;;;;;13.15;6.90;;;14.60;38.70;;;;;;5055123;28;20114;-68
2023/03/18 12:12:45;;;;;;;11.55;6.47;;;14.70;39.00;;;;;;5055459;28;20032;-68
2023/03/18 12:15:35;;;;;;;15.02;6.95;;;14.70;38.50;;;;;;5055347;28;20429;-69
2023/03/18 12:18:34;;;;;;;10.95;6.63;;;14.70;39.40;;;;;;5052753;28;20024;-69
2023/03/18 12:21:24;;;;;;;11.73;6.55;;;14.70;38.90;;;;;;5048718;28;20053;-69
2023/03/18 12:24:01;;;;;;;12.93;6.25;;;14.60;39.10;;;;;;5054662;28;20377;-68
2023/03/18 12:26:39;;;;;;;11.25;6.70;;;14.70;39.10;;;;;;5054627;28;20025;-70
2023/03/18 12:29:06;;;;;;;11.63;6.10;;;14.70;39.50;;;;;;5054846;28;20085;-68
2023/03/18 12:32:10;;;;;;;9.75;6.35;;;14.60;38.90;;;;;;5054468;28;20529;-68
2023/03/18 12:35:16;;;;;;;11.98;6.55;;;14.70;39.00;;;;;;5052910;28;20533;-68
2023/03/18 12:37:49;;;;;;;11.48;6.60;;;14.60;39.10;;;;;;5046481;28;20470;-68
2023/03/18 12:40:18;;;;;;;10.25;6.28;;;14.60;39.20;;;;;;5053490;28;20025;-67
2023/03/18 12:43:14;;;;;;;9.30;5.85;;;14.40;39.10;;;;;;5054272;28;20418;-67
2023/03/18 12:45:45;;;;;;;9.63;6.32;;;14.30;39.50;;;;;;5054105;28;20040;-68
2023/03/18 12:48:16;;;;;;;12.03;6.80;;;14.20;39.20;;;;;;5054813;28;20036;-67
2023/03/18 12:50:48;;;;;;;10.70;6.50;;;14.20;39.50;;;;;;5054345;28;20064;-67
2023/03/18 12:53:32;;;;;;;12.88;6.47;;;14.20;39.90;;;;;;5054477;28;20029;-69
2023/03/18 12:56:02;;;;;;;9.27;5.70;;;14.20;39.80;;;;;;5054715;28;20428;-67
2023/03/18 12:58:34;;;;;;;11.10;5.80;;;14.10;39.80;;;;;;5054013;28;20028;-68
2023/03/18 13:01:06;;;;;;;7.80;5.30;;;14.10;40.00;;;;;;5052852;28;20082;-67